Laws, California
Current Conditions -  °F | °C
As of 10:56 PM on Thursday 30 Oct 2014 (Local Time) from KBIH Reporting Station
Clear Clear  
Wind Chill: 66°   Ceiling: Unl
Heat Index: 66°   Visibility: 10mi
Dew Point: 17°   Wind: 18mph
Humidity: 15%   Direction: 170°S
Pressure: 29.97"   Gusts: 28mph
Location:  37.4772°N, 118.401°W
Report Text: KBIH 310556Z AUTO 17016G24KT 10SM CLR 19/M08 A2997 RMK AO2 PK WND 17027/0528 SLPNO T01891083 10239 20189 55000
Loading
Personal Weather Stations






























Interactive Weather Map
Tropical Storm Tracking
New forecast layout! Learn more

10-Day Weather Forecast

Advertisements
Track Severe Weather on mobile